sensor_id;sensor_type;location;lat;lon;timestamp;pressure;altitude;pressure_sealevel;temperature;humidity
46756;BME280;32506;52.826;-1.192;2023-05-01T00:01:18;101037.88;;;12.73;56.41
46756;BME280;32506;52.826;-1.192;2023-05-01T00:03:43;101041.59;;;12.72;56.34
46756;BME280;32506;52.826;-1.192;2023-05-01T00:06:08;101038.09;;;12.72;56.42
46756;BME280;32506;52.826;-1.192;2023-05-01T00:08:34;101037.47;;;12.70;56.16
46756;BME280;32506;52.826;-1.192;2023-05-01T00:11:03;101035.00;;;12.68;55.88
46756;BME280;32506;52.826;-1.192;2023-05-01T00:13:29;101022.84;;;12.66;55.89
46756;BME280;32506;52.826;-1.192;2023-05-01T00:15:55;101027.63;;;12.64;56.16
46756;BME280;32506;52.826;-1.192;2023-05-01T00:18:21;101023.28;;;12.63;56.07
46756;BME280;32506;52.826;-1.192;2023-05-01T00:20:46;101024.31;;;12.62;56.12
46756;BME280;32506;52.826;-1.192;2023-05-01T00:23:11;101015.66;;;12.59;56.37
46756;BME280;32506;52.826;-1.192;2023-05-01T00:25:38;101010.50;;;12.58;55.86
46756;BME280;32506;52.826;-1.192;2023-05-01T00:28:04;101020.44;;;12.57;55.67
46756;BME280;32506;52.826;-1.192;2023-05-01T00:30:33;101015.28;;;12.56;56.06
46756;BME280;32506;52.826;-1.192;2023-05-01T00:32:59;101008.50;;;12.53;56.01
46756;BME280;32506;52.826;-1.192;2023-05-01T00:35:26;101014.06;;;12.52;56.18
46756;BME280;32506;52.826;-1.192;2023-05-01T00:37:51;101000.91;;;12.50;55.81
46756;BME280;32506;52.826;-1.192;2023-05-01T00:40:17;100997.59;;;12.48;55.75
46756;BME280;32506;52.826;-1.192;2023-05-01T00:42:42;100994.31;;;12.46;55.44
46756;BME280;32506;52.826;-1.192;2023-05-01T00:45:08;100994.50;;;12.45;55.30
46756;BME280;32506;52.826;-1.192;2023-05-01T00:47:34;100994.72;;;12.43;55.20
46756;BME280;32506;52.826;-1.192;2023-05-01T00:50:01;100992.69;;;12.38;54.97
46756;BME280;32506;52.826;-1.192;2023-05-01T00:52:27;100986.31;;;12.39;55.12
46756;BME280;32506;52.826;-1.192;2023-05-01T00:54:53;100981.38;;;12.36;55.12
46756;BME280;32506;52.826;-1.192;2023-05-01T00:57:22;100977.03;;;12.35;54.95
46756;BME280;32506;52.826;-1.192;2023-05-01T00:59:48;100983.66;;;12.33;54.65
46756;BME280;32506;52.826;-1.192;2023-05-01T01:02:14;100979.34;;;12.32;54.81
46756;BME280;32506;52.826;-1.192;2023-05-01T01:04:44;100985.09;;;12.29;54.56
46756;BME280;32506;52.826;-1.192;2023-05-01T01:13:01;100983.09;;;12.24;54.64
46756;BME280;32506;52.826;-1.192;2023-05-01T01:21:26;100987.66;;;12.17;54.35
46756;BME280;32506;52.826;-1.192;2023-05-01T01:29:48;100976.75;;;12.12;54.59
46756;BME280;32506;52.826;-1.192;2023-05-01T01:35:17;100969.13;;;12.08;54.34
46756;BME280;32506;52.826;-1.192;2023-05-01T01:38:13;100966.25;;;12.10;54.37
46756;BME280;32506;52.826;-1.192;2023-05-01T01:40:49;100964.81;;;12.07;54.59
46756;BME280;32506;52.826;-1.192;2023-05-01T01:43:18;100958.63;;;12.07;54.43
46756;BME280;32506;52.826;-1.192;2023-05-01T01:45:47;100960.50;;;12.06;54.50
46756;BME280;32506;52.826;-1.192;2023-05-01T01:48:17;100963.19;;;12.06;54.80
46756;BME280;32506;52.826;-1.192;2023-05-01T01:50:45;100950.81;;;12.05;54.58
46756;BME280;32506;52.826;-1.192;2023-05-01T01:53:15;100955.34;;;12.05;54.55
46756;BME280;32506;52.826;-1.192;2023-05-01T01:55:43;100948.34;;;12.04;54.48
46756;BME280;32506;52.826;-1.192;2023-05-01T01:58:10;100947.31;;;12.05;54.48
46756;BME280;32506;52.826;-1.192;2023-05-01T02:00:39;100941.34;;;12.03;54.50
46756;BME280;32506;52.826;-1.192;2023-05-01T02:03:08;100938.66;;;12.03;54.84
46756;BME280;32506;52.826;-1.192;2023-05-01T02:05:35;100933.53;;;12.01;54.68
46756;BME280;32506;52.826;-1.192;2023-05-01T02:08:03;100930.03;;;12.01;54.67
46756;BME280;32506;52.826;-1.192;2023-05-01T02:10:30;100928.38;;;12.00;54.59
46756;BME280;32506;52.826;-1.192;2023-05-01T02:12:58;100932.09;;;11.99;54.34
46756;BME280;32506;52.826;-1.192;2023-05-01T02:15:24;100928.81;;;11.97;54.33
46756;BME280;32506;52.826;-1.192;2023-05-01T02:17:52;100926.13;;;11.97;54.30
46756;BME280;32506;52.826;-1.192;2023-05-01T02:20:19;100920.16;;;11.95;54.13
46756;BME280;32506;52.826;-1.192;2023-05-01T02:22:46;100927.34;;;11.94;54.43
46756;BME280;32506;52.826;-1.192;2023-05-01T02:25:13;100919.72;;;11.91;54.15
46756;BME280;32506;52.826;-1.192;2023-05-01T02:27:43;100918.09;;;11.90;54.11
46756;BME280;32506;52.826;-1.192;2023-05-01T02:30:11;100915.63;;;11.88;54.09
46756;BME280;32506;52.826;-1.192;2023-05-01T02:32:37;100909.66;;;11.86;54.13
46756;BME280;32506;52.826;-1.192;2023-05-01T02:35:03;100908.22;;;11.84;53.62
46756;BME280;32506;52.826;-1.192;2023-05-01T02:37:29;100906.78;;;11.81;53.73
46756;BME280;32506;52.826;-1.192;2023-05-01T02:39:55;100914.25;;;11.79;53.68
46756;BME280;32506;52.826;-1.192;2023-05-01T02:42:23;100916.06;;;11.79;53.72
46756;BME280;32506;52.826;-1.192;2023-05-01T02:45:09;100911.97;;;11.76;53.29
46756;BME280;32506;52.826;-1.192;2023-05-01T02:47:40;100909.94;;;11.71;53.44
46756;BME280;32506;52.826;-1.192;2023-05-01T02:50:07;100907.47;;;11.70;53.22
46756;BME280;32506;52.826;-1.192;2023-05-01T02:52:33;100911.63;;;11.66;53.16
46756;BME280;32506;52.826;-1.192;2023-05-01T02:54:59;100912.63;;;11.65;52.82
46756;BME280;32506;52.826;-1.192;2023-05-01T02:57:26;100907.72;;;11.62;53.04
46756;BME280;32506;52.826;-1.192;2023-05-01T02:59:51;100908.13;;;11.58;53.16
46756;BME280;32506;52.826;-1.192;2023-05-01T03:02:17;100902.16;;;11.56;52.80
46756;BME280;32506;52.826;-1.192;2023-05-01T03:04:43;100908.78;;;11.54;52.68
46756;BME280;32506;52.826;-1.192;2023-05-01T03:07:08;100896.63;;;11.51;52.61
46756;BME280;32506;52.826;-1.192;2023-05-01T03:09:34;100896.00;;;11.49;52.64
46756;BME280;32506;52.826;-1.192;2023-05-01T03:11:59;100899.09;;;11.46;52.56
46756;BME280;32506;52.826;-1.192;2023-05-01T03:14:25;100903.88;;;11.44;52.78
46756;BME280;32506;52.826;-1.192;2023-05-01T03:16:53;100897.88;;;11.42;52.87
46756;BME280;32506;52.826;-1.192;2023-05-01T03:19:18;100901.59;;;11.41;52.64
46756;BME280;32506;52.826;-1.192;2023-05-01T03:21:43;100901.00;;;11.39;52.73
46756;BME280;32506;52.826;-1.192;2023-05-01T03:24:09;100906.34;;;11.39;52.77
46756;BME280;32506;52.826;-1.192;2023-05-01T03:26:35;100898.72;;;11.36;52.94
46756;BME280;32506;52.826;-1.192;2023-05-01T03:29:00;100903.25;;;11.35;53.10
46756;BME280;32506;52.826;-1.192;2023-05-01T03:31:25;100903.47;;;11.34;53.01
46756;BME280;32506;52.826;-1.192;2023-05-01T03:33:51;100906.38;;;11.32;52.71
46756;BME280;32506;52.826;-1.192;2023-05-01T03:36:16;100901.00;;;11.32;52.92
46756;BME280;32506;52.826;-1.192;2023-05-01T03:38:42;100900.38;;;11.30;52.66
46756;BME280;32506;52.826;-1.192;2023-05-01T03:41:08;100906.75;;;11.29;53.11
46756;BME280;32506;52.826;-1.192;2023-05-01T03:43:33;100899.78;;;11.28;53.14
46756;BME280;32506;52.826;-1.192;2023-05-01T03:45:59;100898.94;;;11.28;53.09
46756;BME280;32506;52.826;-1.192;2023-05-01T03:48:24;100907.19;;;11.26;53.45
46756;BME280;32506;52.826;-1.192;2023-05-01T03:50:50;100899.97;;;11.27;53.20
46756;BME280;32506;52.826;-1.192;2023-05-01T03:53:16;100904.72;;;11.24;53.55
46756;BME280;32506;52.826;-1.192;2023-05-01T03:55:42;100901.25;;;11.24;53.61
46756;BME280;32506;52.826;-1.192;2023-05-01T03:58:07;100900.41;;;11.23;53.94
46756;BME280;32506;52.826;-1.192;2023-05-01T04:00:34;100904.94;;;11.23;54.05
46756;BME280;32506;52.826;-1.192;2023-05-01T04:03:00;100904.09;;;11.22;53.90
46756;BME280;32506;52.826;-1.192;2023-05-01T04:05:25;100904.94;;;11.23;54.01
46756;BME280;32506;52.826;-1.192;2023-05-01T04:07:51;100899.81;;;11.21;54.14
46756;BME280;32506;52.826;-1.192;2023-05-01T04:10:16;100905.97;;;11.22;54.23
46756;BME280;32506;52.826;-1.192;2023-05-01T04:12:42;100899.97;;;11.20;54.13
46756;BME280;32506;52.826;-1.192;2023-05-01T04:15:08;100905.16;;;11.21;54.53
46756;BME280;32506;52.826;-1.192;2023-05-01T04:17:37;100912.34;;;11.21;54.48
46756;BME280;32506;52.826;-1.192;2023-05-01T04:20:03;100907.19;;;11.19;54.19
46756;BME280;32506;52.826;-1.192;2023-05-01T04:22:30;100910.50;;;11.21;54.40
46756;BME280;32506;52.826;-1.192;2023-05-01T04:24:56;100915.22;;;11.19;54.00
46756;BME280;32506;52.826;-1.192;2023-05-01T04:27:21;100909.88;;;11.19;54.15
46756;BME280;32506;52.826;-1.192;2023-05-01T04:29:47;100911.75;;;11.19;54.11
46756;BME280;32506;52.826;-1.192;2023-05-01T04:32:12;100916.03;;;11.20;54.28
46756;BME280;32506;52.826;-1.192;2023-05-01T04:34:38;100907.41;;;11.18;54.12
46756;BME280;32506;52.826;-1.192;2023-05-01T04:37:03;100910.91;;;11.18;53.94
46756;BME280;32506;52.826;-1.192;2023-05-01T04:39:31;100907.41;;;11.18;53.81
46756;BME280;32506;52.826;-1.192;2023-05-01T04:41:57;100914.63;;;11.17;54.05
46756;BME280;32506;52.826;-1.192;2023-05-01T04:44:23;100914.00;;;11.15;53.97
46756;BME280;32506;52.826;-1.192;2023-05-01T04:46:48;100916.69;;;11.15;53.84
46756;BME280;32506;52.826;-1.192;2023-05-01T04:49:14;100922.84;;;11.16;53.86
46756;BME280;32506;52.826;-1.192;2023-05-01T04:51:39;100922.66;;;11.17;53.62
46756;BME280;32506;52.826;-1.192;2023-05-01T04:54:05;100922.03;;;11.15;53.83
46756;BME280;32506;52.826;-1.192;2023-05-01T04:56:30;100925.50;;;11.16;53.63
46756;BME280;32506;52.826;-1.192;2023-05-01T04:58:56;100934.38;;;11.16;53.92
46756;BME280;32506;52.826;-1.192;2023-05-01T05:01:21;100930.06;;;11.15;53.81
46756;BME280;32506;52.826;-1.192;2023-05-01T05:03:47;100939.94;;;11.15;54.08
46756;BME280;32506;52.826;-1.192;2023-05-01T05:06:12;100926.56;;;11.15;53.98
46756;BME280;32506;52.826;-1.192;2023-05-01T05:08:38;100936.44;;;11.14;53.93
46756;BME280;32506;52.826;-1.192;2023-05-01T05:11:03;100931.91;;;11.15;53.95
46756;BME280;32506;52.826;-1.192;2023-05-01T05:13:29;100932.72;;;11.15;54.08
46756;BME280;32506;52.826;-1.192;2023-05-01T05:15:54;100937.25;;;11.15;54.13
46756;BME280;32506;52.826;-1.192;2023-05-01T05:18:20;100937.25;;;11.15;53.79
46756;BME280;32506;52.826;-1.192;2023-05-01T05:20:45;100938.28;;;11.14;54.42
46756;BME280;32506;52.826;-1.192;2023-05-01T05:23:11;100944.44;;;11.14;53.94
46756;BME280;32506;52.826;-1.192;2023-05-01T05:25:36;100945.28;;;11.15;53.92
46756;BME280;32506;52.826;-1.192;2023-05-01T05:28:02;100945.28;;;11.15;54.05
46756;BME280;32506;52.826;-1.192;2023-05-01T05:30:28;100948.56;;;11.17;54.11
46756;BME280;32506;52.826;-1.192;2023-05-01T05:32:54;100945.09;;;11.16;53.91
46756;BME280;32506;52.826;-1.192;2023-05-01T05:35:19;100949.59;;;11.16;54.10
46756;BME280;32506;52.826;-1.192;2023-05-01T05:37:45;100952.09;;;11.17;54.12
46756;BME280;32506;52.826;-1.192;2023-05-01T05:40:11;100948.34;;;11.18;54.01
46756;BME280;32506;52.826;-1.192;2023-05-01T05:42:37;100945.47;;;11.20;54.21
46756;BME280;32506;52.826;-1.192;2023-05-01T05:45:03;100948.13;;;11.20;54.06
46756;BME280;32506;52.826;-1.192;2023-05-01T05:47:28;100945.47;;;11.20;53.83
46756;BME280;32506;52.826;-1.192;2023-05-01T05:49:54;100954.94;;;11.22;53.85
46756;BME280;32506;52.826;-1.192;2023-05-01T05:52:20;100958.44;;;11.23;54.14
46756;BME280;32506;52.826;-1.192;2023-05-01T05:54:46;100958.22;;;11.24;53.87
46756;BME280;32506;52.826;-1.192;2023-05-01T05:57:11;100962.56;;;11.25;53.74
46756;BME280;32506;52.826;-1.192;2023-05-01T05:59:37;100959.69;;;11.27;53.98
46756;BME280;32506;52.826;-1.192;2023-05-01T06:02:02;100959.47;;;11.29;53.83
46756;BME280;32506;52.826;-1.192;2023-05-01T06:04:28;100954.91;;;11.29;54.02
46756;BME280;32506;52.826;-1.192;2023-05-01T06:06:53;100947.53;;;11.31;53.44
46756;BME280;32506;52.826;-1.192;2023-05-01T06:09:19;100943.59;;;11.34;53.34
46756;BME280;32506;52.826;-1.192;2023-05-01T06:11:45;100943.59;;;11.34;53.64
46756;BME280;32506;52.826;-1.192;2023-05-01T06:14:10;100944.22;;;11.36;53.35
46756;BME280;32506;52.826;-1.192;2023-05-01T06:16:36;100953.06;;;11.36;53.41
46756;BME280;32506;52.826;-1.192;2023-05-01T06:19:02;100958.22;;;11.38;53.32
46756;BME280;32506;52.826;-1.192;2023-05-01T06:21:27;100962.34;;;11.40;53.44
46756;BME280;32506;52.826;-1.192;2023-05-01T06:23:53;100955.94;;;11.41;53.52
46756;BME280;32506;52.826;-1.192;2023-05-01T06:26:19;100959.44;;;11.42;53.25
46756;BME280;32506;52.826;-1.192;2023-05-01T06:28:45;100957.41;;;11.44;53.21
46756;BME280;32506;52.826;-1.192;2023-05-01T06:31:11;100959.00;;;11.45;53.49
46756;BME280;32506;52.826;-1.192;2023-05-01T06:33:36;100952.41;;;11.48;53.48
46756;BME280;32506;52.826;-1.192;2023-05-01T06:36:02;100964.78;;;11.49;53.57
46756;BME280;32506;52.826;-1.192;2023-05-01T06:38:27;100965.41;;;11.51;53.57
46756;BME280;32506;52.826;-1.192;2023-05-01T06:40:53;100967.88;;;11.52;53.69
46756;BME280;32506;52.826;-1.192;2023-05-01T06:43:18;100966.63;;;11.55;53.63
46756;BME280;32506;52.826;-1.192;2023-05-01T06:45:44;100967.22;;;11.57;53.83
46756;BME280;32506;52.826;-1.192;2023-05-01T06:48:09;100966.00;;;11.59;53.80
46756;BME280;32506;52.826;-1.192;2023-05-01T06:50:35;100966.63;;;11.62;54.20
46756;BME280;32506;52.826;-1.192;2023-05-01T06:53:01;100966.19;;;11.65;54.11
46756;BME280;32506;52.826;-1.192;2023-05-01T06:55:27;100975.44;;;11.69;54.11
46756;BME280;32506;52.826;-1.192;2023-05-01T06:57:56;100970.50;;;11.72;54.35
46756;BME280;32506;52.826;-1.192;2023-05-01T07:00:21;100972.75;;;11.75;54.45
46756;BME280;32506;52.826;-1.192;2023-05-01T07:02:48;100980.97;;;11.81;54.34
46756;BME280;32506;52.826;-1.192;2023-05-01T07:05:13;100977.84;;;11.84;54.55
46756;BME280;32506;52.826;-1.192;2023-05-01T07:07:39;100985.28;;;11.88;55.05
46756;BME280;32506;52.826;-1.192;2023-05-01T07:10:04;100982.75;;;11.93;55.04
46756;BME280;32506;52.826;-1.192;2023-05-01T07:12:30;100982.38;;;11.97;55.08
46756;BME280;32506;52.826;-1.192;2023-05-01T07:14:56;100988.53;;;12.04;55.16
46756;BME280;32506;52.826;-1.192;2023-05-01T07:17:21;100988.09;;;12.07;55.06
46756;BME280;32506;52.826;-1.192;2023-05-01T07:19:47;100986.44;;;12.13;55.23
46756;BME280;32506;52.826;-1.192;2023-05-01T07:22:14;100993.03;;;12.17;55.51
46756;BME280;32506;52.826;-1.192;2023-05-01T07:24:40;100987.00;;;12.21;55.48
46756;BME280;32506;52.826;-1.192;2023-05-01T07:27:05;100988.00;;;12.27;55.76
46756;BME280;32506;52.826;-1.192;2023-05-01T07:29:30;100989.22;;;12.31;55.78
46756;BME280;32506;52.826;-1.192;2023-05-01T07:31:56;100996.63;;;12.36;55.92
46756;BME280;32506;52.826;-1.192;2023-05-01T07:34:21;100997.84;;;12.40;55.71
46756;BME280;32506;52.826;-1.192;2023-05-01T07:36:47;100999.69;;;12.46;55.98
46756;BME280;32506;52.826;-1.192;2023-05-01T07:39:12;100995.53;;;12.50;56.25
46756;BME280;32506;52.826;-1.192;2023-05-01T07:41:39;101005.59;;;12.55;56.11
46756;BME280;32506;52.826;-1.192;2023-05-01T07:44:04;101006.59;;;12.61;56.00
46756;BME280;32506;52.826;-1.192;2023-05-01T07:46:30;101002.44;;;12.65;56.27
46756;BME280;32506;52.826;-1.192;2023-05-01T07:48:55;101004.84;;;12.73;56.51
46756;BME280;32506;52.826;-1.192;2023-05-01T07:51:21;100996.16;;;12.78;56.84
46756;BME280;32506;52.826;-1.192;2023-05-01T07:53:47;101003.13;;;12.85;57.00
46756;BME280;32506;52.826;-1.192;2023-05-01T07:56:13;101009.25;;;12.92;57.25
46756;BME280;32506;52.826;-1.192;2023-05-01T07:58:39;101009.00;;;13.01;57.07
46756;BME280;32506;52.826;-1.192;2023-05-01T08:01:06;101015.94;;;13.08;56.82
46756;BME280;32506;52.826;-1.192;2023-05-01T08:03:33;101021.84;;;13.17;57.70
46756;BME280;32506;52.826;-1.192;2023-05-01T08:05:59;101017.28;;;13.24;57.23
46756;BME280;32506;52.826;-1.192;2023-05-01T08:08:24;101019.69;;;13.33;57.49
46756;BME280;32506;52.826;-1.192;2023-05-01T08:10:50;101026.88;;;13.39;57.76
46756;BME280;32506;52.826;-1.192;2023-05-01T08:13:16;101019.34;;;13.48;57.60
46756;BME280;32506;52.826;-1.192;2023-05-01T08:15:41;101021.16;;;13.54;57.64
46756;BME280;32506;52.826;-1.192;2023-05-01T08:18:08;101021.09;;;13.61;57.67
46756;BME280;32506;52.826;-1.192;2023-05-01T08:20:35;101021.84;;;13.68;57.44
46756;BME280;32506;52.826;-1.192;2023-05-01T08:23:01;101020.97;;;13.74;57.68
46756;BME280;32506;52.826;-1.192;2023-05-01T08:25:26;101027.88;;;13.82;57.68
46756;BME280;32506;52.826;-1.192;2023-05-01T08:27:52;101027.81;;;13.88;57.79
46756;BME280;32506;52.826;-1.192;2023-05-01T08:30:17;101026.69;;;13.96;57.77
46756;BME280;32506;52.826;-1.192;2023-05-01T08:32:43;101033.66;;;14.04;57.79
46756;BME280;32506;52.826;-1.192;2023-05-01T08:35:08;101032.75;;;14.10;57.59
46756;BME280;32506;52.826;-1.192;2023-05-01T08:37:34;101031.59;;;14.18;57.56
46756;BME280;32506;52.826;-1.192;2023-05-01T08:40:00;101039.59;;;14.24;57.61
46756;BME280;32506;52.826;-1.192;2023-05-01T08:42:28;101034.13;;;14.31;57.45
46756;BME280;32506;52.826;-1.192;2023-05-01T08:44:55;101042.94;;;14.38;57.77
46756;BME280;32506;52.826;-1.192;2023-05-01T08:47:24;101039.34;;;14.44;57.61
46756;BME280;32506;52.826;-1.192;2023-05-01T08:49:51;101049.78;;;14.53;57.61
46756;BME280;32506;52.826;-1.192;2023-05-01T08:52:17;101041.63;;;14.59;57.49
46756;BME280;32506;52.826;-1.192;2023-05-01T08:54:44;101038.28;;;14.64;57.56
46756;BME280;32506;52.826;-1.192;2023-05-01T08:57:12;101047.06;;;14.71;57.63
46756;BME280;32506;52.826;-1.192;2023-05-01T08:59:39;101041.59;;;14.78;57.46
46756;BME280;32506;52.826;-1.192;2023-05-01T09:02:07;101037.75;;;14.86;57.59
46756;BME280;32506;52.826;-1.192;2023-05-01T09:04:38;101049.00;;;14.94;57.60
46756;BME280;32506;52.826;-1.192;2023-05-01T09:07:04;101042.47;;;15.02;57.87
46756;BME280;32506;52.826;-1.192;2023-05-01T09:09:31;101056.75;;;15.15;58.13
46756;BME280;32506;52.826;-1.192;2023-05-01T09:12:00;101053.53;;;15.24;58.05
46756;BME280;32506;52.826;-1.192;2023-05-01T09:14:28;101056.69;;;15.33;58.42
46756;BME280;32506;52.826;-1.192;2023-05-01T09:16:54;101054.25;;;15.43;58.25
46756;BME280;32506;52.826;-1.192;2023-05-01T09:19:20;101058.59;;;15.56;58.13
46756;BME280;32506;52.826;-1.192;2023-05-01T09:21:46;101054.81;;;15.69;58.21
46756;BME280;32506;52.826;-1.192;2023-05-01T09:24:12;101057.28;;;15.83;58.28
46756;BME280;32506;52.826;-1.192;2023-05-01T09:26:40;101049.31;;;16.00;58.78
46756;BME280;32506;52.826;-1.192;2023-05-01T09:29:07;101043.97;;;16.17;58.74
46756;BME280;32506;52.826;-1.192;2023-05-01T09:31:34;101050.03;;;16.36;57.82
46756;BME280;32506;52.826;-1.192;2023-05-01T09:34:01;101051.97;;;16.52;57.12
46756;BME280;32506;52.826;-1.192;2023-05-01T09:36:29;101055.41;;;16.65;57.69
46756;BME280;32506;52.826;-1.192;2023-05-01T09:38:56;101062.31;;;16.72;56.82
46756;BME280;32506;52.826;-1.192;2023-05-01T09:41:22;101057.25;;;16.76;56.09
46756;BME280;32506;52.826;-1.192;2023-05-01T09:43:51;101060.53;;;16.78;56.43
46756;BME280;32506;52.826;-1.192;2023-05-01T09:46:18;101065.56;;;16.74;56.73
46756;BME280;32506;52.826;-1.192;2023-05-01T09:48:57;101075.22;;;16.70;56.26
46756;BME280;32506;52.826;-1.192;2023-05-01T09:51:30;101067.50;;;16.62;56.63
46756;BME280;32506;52.826;-1.192;2023-05-01T09:54:03;101074.94;;;16.55;56.96
46756;BME280;32506;52.826;-1.192;2023-05-01T09:56:30;101066.75;;;16.50;57.10
46756;BME280;32506;52.826;-1.192;2023-05-01T09:58:58;101069.59;;;16.43;57.69
46756;BME280;32506;52.826;-1.192;2023-05-01T10:01:41;101067.94;;;16.42;58.28
46756;BME280;32506;52.826;-1.192;2023-05-01T10:04:08;101066.78;;;16.38;58.34
46756;BME280;32506;52.826;-1.192;2023-05-01T10:06:38;101068.44;;;16.39;59.37
46756;BME280;32506;52.826;-1.192;2023-05-01T10:09:04;101061.75;;;16.41;59.13
46756;BME280;32506;52.826;-1.192;2023-05-01T10:11:47;101062.16;;;16.50;58.86
46756;BME280;32506;52.826;-1.192;2023-05-01T10:14:13;101058.84;;;16.60;59.21
46756;BME280;32506;52.826;-1.192;2023-05-01T10:16:39;101063.13;;;16.73;59.92
46756;BME280;32506;52.826;-1.192;2023-05-01T10:19:04;101066.69;;;16.90;59.97
46756;BME280;32506;52.826;-1.192;2023-05-01T10:21:31;101059.44;;;17.08;59.88
46756;BME280;32506;52.826;-1.192;2023-05-01T10:23:58;101056.75;;;17.25;58.45
46756;BME280;32506;52.826;-1.192;2023-05-01T10:26:25;101052.91;;;17.38;57.55
46756;BME280;32506;52.826;-1.192;2023-05-01T10:28:51;101061.75;;;17.50;57.37
46756;BME280;32506;52.826;-1.192;2023-05-01T10:31:16;101055.66;;;17.60;56.67
46756;BME280;32506;52.826;-1.192;2023-05-01T10:33:43;101058.25;;;17.72;56.52
46756;BME280;32506;52.826;-1.192;2023-05-01T10:36:14;101065.94;;;17.80;54.97
46756;BME280;32506;52.826;-1.192;2023-05-01T10:38:42;101056.84;;;17.86;55.57
46756;BME280;32506;52.826;-1.192;2023-05-01T10:41:12;101064.53;;;17.94;55.22
46756;BME280;32506;52.826;-1.192;2023-05-01T10:43:38;101054.34;;;18.02;54.61
